Time;durP1;ratioP1;P1;durP2;ratioP2;P2;SDS_P1;SDS_P2;PMS_P1;PMS_P2;Temp;Humidity;BMP_temperature;BMP_pressure;BME280_temperature;BME280_humidity;BME280_pressure;Samples;Min_cycle;Max_cycle;Signal;HPM_P1;HPM_P2
2022/06/07 00:00:18;;;;;;;30.92;13.32;;;11.90;99.90;;;;;;5011131;28;20038;-38
2022/06/07 00:02:44;;;;;;;23.90;11.82;;;11.00;99.90;;;;;;5009380;28;20081;-37
2022/06/07 00:05:10;;;;;;;30.58;12.13;;;12.30;99.90;;;;;;5011041;28;20070;-37
2022/06/07 00:07:35;;;;;;;26.98;11.25;;;11.80;99.90;;;;;;5011211;28;20033;-38
2022/06/07 00:10:01;;;;;;;20.73;10.82;;;12.00;99.90;;;;;;5010790;28;20470;-37
2022/06/07 00:12:27;;;;;;;20.98;10.77;;;11.40;99.90;;;;;;5011084;28;20049;-37
2022/06/07 00:14:53;;;;;;;30.52;13.18;;;11.10;99.90;;;;;;5010196;28;20144;-37
2022/06/07 00:17:19;;;;;;;40.78;14.15;;;11.50;99.90;;;;;;5011099;28;20056;-38
2022/06/07 00:19:45;;;;;;;27.55;12.18;;;11.40;99.90;;;;;;5010477;28;20041;-37
2022/06/07 00:22:11;;;;;;;30.27;13.60;;;11.40;99.90;;;;;;5010951;28;20042;-37
2022/06/07 00:24:37;;;;;;;23.65;13.93;;;11.40;99.90;;;;;;5010545;28;20053;-38
2022/06/07 00:27:04;;;;;;;37.92;16.30;;;11.60;99.90;;;;;;5010652;28;20046;-38
2022/06/07 00:29:30;;;;;;;46.00;18.02;;;11.10;99.90;;;;;;5010769;28;20037;-37
2022/06/07 00:31:58;;;;;;;37.03;17.48;;;11.50;99.90;;;;;;5010593;28;20038;-37
2022/06/07 00:34:24;;;;;;;27.25;15.73;;;11.40;99.90;;;;;;5010571;28;20061;-37
2022/06/07 00:36:50;;;;;;;65.40;21.48;;;11.50;99.90;;;;;;5010893;28;20037;-37
2022/06/07 00:39:16;;;;;;;27.88;16.75;;;11.40;99.90;;;;;;5010655;28;20046;-37
2022/06/07 00:41:41;;;;;;;37.38;18.60;;;11.50;99.90;;;;;;5010954;28;20041;-37
2022/06/07 00:44:21;;;;;;;37.13;18.38;;;11.80;99.90;;;;;;5010736;28;20120;-38
2022/06/07 00:47:03;;;;;;;41.80;19.20;;;11.00;99.90;;;;;;5010591;28;20034;-37
2022/06/07 00:49:34;;;;;;;54.10;20.88;;;11.10;99.90;;;;;;5010696;28;20038;-37
2022/06/07 00:52:00;;;;;;;35.17;18.50;;;11.20;99.90;;;;;;5010631;28;20046;-37
2022/06/07 00:54:29;;;;;;;42.58;19.10;;;11.10;99.90;;;;;;5010488;28;20477;-37
2022/06/07 00:56:55;;;;;;;65.07;22.60;;;11.10;99.90;;;;;;5010150;28;20050;-37
2022/06/07 00:59:22;;;;;;;46.95;21.92;;;11.90;99.90;;;;;;5010520;28;20081;-38
2022/06/07 01:01:48;;;;;;;34.55;19.75;;;11.40;99.90;;;;;;5010337;28;20048;-37
2022/06/07 01:04:14;;;;;;;79.72;24.33;;;11.60;99.90;;;;;;5010538;28;20476;-37
2022/06/07 01:12:08;;;;;;;49.05;21.65;;;11.40;99.90;;;;;;5010308;28;20093;-37
2022/06/07 01:14:34;;;;;;;43.72;21.65;;;11.10;99.90;;;;;;5010300;28;20133;-38
2022/06/07 01:16:59;;;;;;;85.93;24.02;;;11.30;99.90;;;;;;5010413;28;20049;-37
2022/06/07 01:19:27;;;;;;;43.97;21.08;;;12.20;99.90;;;;;;5010868;28;20060;-37
2022/06/07 01:21:53;;;;;;;47.85;20.42;;;11.50;99.90;;;;;;5010482;28;20052;-37
2022/06/07 01:24:18;;;;;;;31.98;18.35;;;11.40;99.90;;;;;;5010527;28;20397;-37
2022/06/07 01:26:44;;;;;;;35.90;20.02;;;11.50;99.90;;;;;;5012474;28;20038;-37
2022/06/07 01:29:11;;;;;;;56.55;21.65;;;11.40;99.90;;;;;;5013666;28;20135;-37
2022/06/07 01:31:37;;;;;;;52.03;22.75;;;11.50;99.90;;;;;;5013861;28;20076;-37
2022/06/07 01:34:03;;;;;;;34.53;21.42;;;11.50;99.90;;;;;;5013580;28;20131;-37
2022/06/07 01:36:30;;;;;;;31.27;19.70;;;11.20;99.90;;;;;;5013966;28;20048;-37
2022/06/07 01:41:55;;;;;;;29.02;18.38;;;11.90;99.90;;;;;;5012212;28;20061;-37
2022/06/07 01:44:42;;;;;;;37.55;19.45;;;11.50;99.90;;;;;;5013844;28;20137;-37
2022/06/07 01:47:10;;;;;;;34.28;18.80;;;11.50;99.90;;;;;;5013586;28;20037;-37
2022/06/07 01:49:37;;;;;;;31.40;18.80;;;12.00;99.90;;;;;;5013990;28;20049;-37
2022/06/07 01:52:04;;;;;;;50.88;21.52;;;12.00;99.90;;;;;;5013485;28;20045;-37
2022/06/07 01:54:30;;;;;;;44.05;20.35;;;11.30;99.90;;;;;;5013660;28;20049;-37
2022/06/07 01:56:56;;;;;;;44.97;22.45;;;12.10;99.90;;;;;;5013133;28;20073;-37
2022/06/07 01:59:21;;;;;;;29.98;18.95;;;11.60;99.90;;;;;;5013546;28;20053;-37
2022/06/07 02:01:49;;;;;;;27.45;18.63;;;11.60;99.90;;;;;;5013138;28;20050;-37
2022/06/07 02:04:15;;;;;;;32.17;17.63;;;11.50;99.90;;;;;;5013152;28;20121;-37
2022/06/07 02:06:41;;;;;;;25.20;16.02;;;11.60;99.90;;;;;;5013377;28;20041;-37
2022/06/07 02:09:08;;;;;;;21.85;16.67;;;11.60;99.90;;;;;;5012882;28;20096;-37
2022/06/07 02:11:35;;;;;;;21.15;14.75;;;12.00;99.90;;;;;;5013237;28;20389;-38
2022/06/07 02:14:01;;;;;;;23.48;14.32;;;11.90;99.90;;;;;;5012974;28;20046;-37
2022/06/07 02:16:27;;;;;;;28.33;15.20;;;11.70;99.90;;;;;;5012740;28;20105;-37
2022/06/07 02:18:53;;;;;;;22.42;13.98;;;11.60;99.90;;;;;;5012692;28;20520;-37
2022/06/07 02:21:21;;;;;;;20.05;13.82;;;11.80;99.90;;;;;;5011283;28;20042;-37
2022/06/07 02:23:48;;;;;;;23.77;14.60;;;12.10;99.90;;;;;;5013028;28;20064;-37
2022/06/07 02:26:18;;;;;;;29.92;16.00;;;12.00;99.90;;;;;;5012719;28;20046;-37
2022/06/07 02:28:48;;;;;;;31.52;16.65;;;11.50;99.90;;;;;;5012935;28;20046;-37
2022/06/07 02:31:15;;;;;;;28.38;17.30;;;12.00;99.90;;;;;;5012445;28;20045;-37
2022/06/07 02:33:41;;;;;;;32.53;18.40;;;11.90;99.90;;;;;;5013050;28;20042;-37
2022/06/07 02:36:09;;;;;;;35.13;18.20;;;11.60;99.90;;;;;;5012313;28;20492;-37
2022/06/07 02:38:35;;;;;;;23.27;15.77;;;11.40;99.90;;;;;;5012805;28;20041;-37
2022/06/07 02:41:04;;;;;;;33.55;18.00;;;12.10;99.90;;;;;;5012546;28;20050;-37
2022/06/07 02:43:30;;;;;;;28.73;17.05;;;11.30;99.90;;;;;;5012669;28;20053;-37
2022/06/07 02:45:56;;;;;;;29.50;17.50;;;11.80;99.90;;;;;;5012560;28;20053;-37
2022/06/07 02:48:22;;;;;;;32.25;17.45;;;12.50;99.90;;;;;;5012421;28;20080;-37
2022/06/07 02:50:49;;;;;;;38.30;18.15;;;11.80;99.90;;;;;;5012227;28;20129;-37
2022/06/07 02:53:15;;;;;;;32.50;18.30;;;11.70;99.90;;;;;;5012287;28;20049;-37
2022/06/07 02:55:40;;;;;;;26.50;15.23;;;11.80;99.90;;;;;;5012340;28;20121;-37
2022/06/07 02:58:06;;;;;;;27.65;16.38;;;11.50;99.90;;;;;;5012259;28;20447;-37
2022/06/07 03:00:32;;;;;;;33.08;17.40;;;11.80;99.90;;;;;;5012305;28;20042;-37
2022/06/07 03:02:58;;;;;;;32.17;16.10;;;11.70;99.90;;;;;;5012137;28;20041;-37
2022/06/07 03:05:24;;;;;;;23.40;15.20;;;12.00;99.90;;;;;;5011907;28;20046;-37
2022/06/07 03:07:51;;;;;;;34.85;17.67;;;11.80;99.90;;;;;;5012215;28;20046;-37
2022/06/07 03:10:17;;;;;;;25.95;15.90;;;11.70;99.90;;;;;;5011664;28;20512;-37
2022/06/07 03:12:44;;;;;;;39.10;18.58;;;12.00;99.90;;;;;;5012083;28;20069;-37
2022/06/07 03:15:10;;;;;;;29.83;16.85;;;11.90;99.90;;;;;;5011686;28;20076;-37
2022/06/07 03:17:37;;;;;;;30.88;15.77;;;11.30;99.90;;;;;;5012052;28;20322;-38
2022/06/07 03:20:08;;;;;;;31.05;15.85;;;11.80;99.90;;;;;;5012011;28;20050;-37
2022/06/07 03:22:35;;;;;;;49.20;18.65;;;11.40;99.90;;;;;;5011773;28;20046;-38
2022/06/07 03:25:05;;;;;;;34.92;16.92;;;11.90;99.90;;;;;;5011866;28;20050;-37
2022/06/07 03:27:36;;;;;;;30.50;16.25;;;11.70;99.90;;;;;;5011948;28;20073;-37
2022/06/07 03:30:07;;;;;;;30.33;17.25;;;11.80;99.90;;;;;;5011463;28;20490;-37
2022/06/07 03:32:34;;;;;;;29.33;15.93;;;11.40;99.90;;;;;;5011887;28;20046;-37
2022/06/07 03:35:00;;;;;;;38.17;17.15;;;12.20;99.90;;;;;;5011811;28;20385;-37
2022/06/07 03:37:25;;;;;;;26.02;15.15;;;11.80;99.90;;;;;;5011214;28;20046;-37
2022/06/07 03:39:51;;;;;;;29.52;16.10;;;11.80;99.90;;;;;;5011655;28;20050;-37
2022/06/07 03:42:18;;;;;;;29.50;15.68;;;11.60;99.90;;;;;;5011324;28;20394;-37
2022/06/07 03:44:48;;;;;;;30.63;15.88;;;12.20;99.90;;;;;;5011670;28;20145;-37
2022/06/07 03:47:18;;;;;;;24.83;15.68;;;11.70;99.90;;;;;;5011164;28;20113;-37
2022/06/07 03:49:46;;;;;;;27.30;15.45;;;11.90;99.90;;;;;;5010779;28;20124;-37
2022/06/07 03:52:12;;;;;;;29.35;16.67;;;11.40;99.90;;;;;;5010892;28;20054;-37
2022/06/07 03:54:39;;;;;;;35.03;16.45;;;11.30;99.90;;;;;;5011276;28;20045;-37
2022/06/07 03:57:06;;;;;;;27.02;15.65;;;11.90;99.90;;;;;;5011160;28;20168;-37
2022/06/07 03:59:31;;;;;;;27.98;15.57;;;11.40;99.90;;;;;;5011082;28;20409;-37
2022/06/07 04:01:57;;;;;;;26.70;16.25;;;11.70;99.90;;;;;;5003823;28;20049;-38
2022/06/07 04:04:23;;;;;;;29.70;15.27;;;12.00;99.90;;;;;;5005089;28;20049;-38
2022/06/07 04:09:41;;;;;;;39.08;17.17;;;11.50;99.90;;;;;;5008568;28;20042;-43
2022/06/07 04:12:12;;;;;;;37.10;17.65;;;11.40;99.90;;;;;;5008308;28;20049;-40
2022/06/07 04:14:39;;;;;;;29.70;16.80;;;11.80;99.90;;;;;;5008398;28;20516;-41
2022/06/07 04:17:05;;;;;;;31.48;15.82;;;11.90;99.90;;;;;;5008209;28;20319;-40
2022/06/07 04:19:33;;;;;;;36.35;17.15;;;11.90;99.90;;;;;;5008149;28;20069;-39
2022/06/07 04:21:59;;;;;;;27.88;16.85;;;11.50;99.90;;;;;;5007957;28;20049;-39
2022/06/07 04:24:25;;;;;;;28.00;16.05;;;11.90;99.90;;;;;;5008136;28;20038;-39
2022/06/07 04:26:51;;;;;;;29.13;15.93;;;12.10;99.90;;;;;;5008308;28;20560;-39
2022/06/07 04:29:16;;;;;;;28.08;15.30;;;11.90;99.90;;;;;;5008039;28;20196;-40
2022/06/07 04:31:42;;;;;;;21.75;14.02;;;11.80;99.90;;;;;;5008539;28;20401;-44
2022/06/07 04:34:08;;;;;;;24.02;13.88;;;12.10;99.90;;;;;;5009902;28;20050;-41
2022/06/07 04:36:34;;;;;;;25.17;14.90;;;12.30;99.90;;;;;;5009867;28;20129;-41
2022/06/07 04:39:02;;;;;;;24.52;15.88;;;12.10;99.90;;;;;;5009935;28;20113;-43
2022/06/07 04:41:28;;;;;;;27.55;15.40;;;12.60;99.90;;;;;;5009475;28;20464;-44
2022/06/07 04:43:55;;;;;;;28.50;15.93;;;11.60;99.90;;;;;;5009049;28;20050;-41
2022/06/07 04:46:22;;;;;;;24.38;15.13;;;12.00;99.90;;;;;;5008590;28;20664;-43
2022/06/07 04:48:49;;;;;;;23.70;14.32;;;12.00;99.90;;;;;;5008851;28;20069;-42
2022/06/07 04:51:25;;;;;;;30.13;14.98;;;12.00;99.90;;;;;;5008868;28;20452;-44
2022/06/07 04:53:51;;;;;;;26.98;15.70;;;11.70;99.90;;;;;;5008751;28;20045;-42
2022/06/07 04:56:20;;;;;;;23.95;14.18;;;12.30;99.90;;;;;;5008199;28;20100;-43
2022/06/07 04:58:45;;;;;;;29.17;15.73;;;12.10;99.90;;;;;;5008794;28;20037;-42
2022/06/07 05:01:17;;;;;;;24.25;14.55;;;12.10;99.90;;;;;;5010325;28;20393;-41
2022/06/07 05:03:43;;;;;;;28.27;16.50;;;12.20;99.90;;;;;;5011512;28;20041;-41
2022/06/07 05:06:19;;;;;;;26.20;13.75;;;11.80;99.90;;;;;;5013157;28;20045;-41
2022/06/07 05:08:45;;;;;;;23.48;14.95;;;11.80;99.90;;;;;;5013013;28;20397;-41
2022/06/07 05:11:11;;;;;;;28.13;15.77;;;12.10;99.90;;;;;;5013056;28;20490;-45
2022/06/07 05:13:36;;;;;;;23.05;15.48;;;11.80;99.90;;;;;;5012583;28;20165;-42
2022/06/07 05:16:03;;;;;;;30.83;16.35;;;12.60;99.90;;;;;;5012226;28;20088;-41
2022/06/07 05:18:28;;;;;;;27.58;15.60;;;11.80;99.90;;;;;;5012356;28;20462;-41
2022/06/07 05:20:54;;;;;;;30.50;15.40;;;11.50;99.90;;;;;;5012655;28;20092;-43
2022/06/07 05:23:20;;;;;;;24.40;15.07;;;11.80;99.90;;;;;;5012407;28;20050;-42
2022/06/07 05:26:08;;;;;;;28.35;14.50;;;11.80;99.90;;;;;;5012307;28;20485;-43
2022/06/07 05:28:34;;;;;;;23.88;15.70;;;11.80;99.90;;;;;;5012121;28;20045;-42
2022/06/07 05:31:00;;;;;;;30.80;18.08;;;12.00;99.90;;;;;;5012291;28;20049;-42
2022/06/07 05:33:25;;;;;;;24.50;14.40;;;11.80;99.90;;;;;;5012312;28;20049;-42
2022/06/07 05:35:51;;;;;;;22.50;15.27;;;12.10;99.90;;;;;;5012561;28;20050;-42
2022/06/07 05:38:17;;;;;;;25.83;16.23;;;12.10;99.90;;;;;;5012053;28;20038;-44
2022/06/07 05:40:43;;;;;;;23.85;16.30;;;12.30;99.90;;;;;;5011899;28;20513;-41
2022/06/07 05:43:10;;;;;;;25.52;14.50;;;12.90;99.90;;;;;;5012164;28;20049;-42
2022/06/07 05:45:37;;;;;;;22.55;15.45;;;12.20;99.90;;;;;;5012116;28;20046;-42
2022/06/07 05:48:02;;;;;;;19.85;13.93;;;12.10;99.90;;;;;;5012223;28;20132;-42
2022/06/07 05:50:29;;;;;;;19.40;13.45;;;11.80;99.90;;;;;;5011837;28;20121;-41
2022/06/07 05:52:54;;;;;;;19.67;13.80;;;12.20;99.90;;;;;;5012240;28;20056;-42
2022/06/07 05:55:20;;;;;;;18.17;12.45;;;13.10;99.90;;;;;;5012175;28;20049;-43
2022/06/07 05:57:50;;;;;;;26.23;15.55;;;12.20;99.90;;;;;;5011800;28;20041;-41
2022/06/07 06:00:17;;;;;;;24.83;14.63;;;12.10;99.90;;;;;;5012226;28;20042;-46
2022/06/07 06:02:43;;;;;;;21.67;13.57;;;11.80;99.90;;;;;;5011706;28;20085;-42
2022/06/07 06:05:10;;;;;;;22.15;13.48;;;11.80;99.90;;;;;;5011705;28;20042;-41
2022/06/07 06:10:19;;;;;;;27.98;15.27;;;12.40;99.90;;;;;;5011286;28;20049;-41
2022/06/07 06:10:22;;;;;;;18.17;13.57;;;12.00;99.90;;;;;;5011365;28;20045;-44
2022/06/07 06:12:48;;;;;;;17.70;12.52;;;11.80;99.90;;;;;;5010995;28;20077;-42
2022/06/07 06:15:14;;;;;;;16.88;11.85;;;12.20;99.90;;;;;;5010463;28;20097;-41
2022/06/07 06:17:40;;;;;;;14.95;9.65;;;11.80;99.90;;;;;;5009876;28;20078;-41
2022/06/07 06:20:09;;;;;;;13.13;8.43;;;12.40;99.90;;;;;;5009930;28;20049;-42
2022/06/07 06:22:36;;;;;;;13.13;8.20;;;11.80;99.90;;;;;;5010323;28;20120;-42
2022/06/07 06:25:02;;;;;;;15.63;8.75;;;12.20;99.90;;;;;;5009792;28;20104;-42
2022/06/07 06:27:29;;;;;;;10.63;7.57;;;11.80;99.90;;;;;;5009979;28;20129;-42
2022/06/07 06:29:55;;;;;;;11.23;6.72;;;12.20;99.90;;;;;;5009687;28;20528;-41
2022/06/07 06:32:21;;;;;;;10.90;6.90;;;11.70;99.90;;;;;;5010038;28;20077;-42
2022/06/07 06:34:47;;;;;;;13.70;7.43;;;12.00;99.90;;;;;;5009681;28;20363;-42
2022/06/07 06:37:13;;;;;;;11.13;6.18;;;12.70;99.90;;;;;;5010012;28;20423;-41
2022/06/07 06:39:39;;;;;;;10.25;7.20;;;12.00;99.90;;;;;;5009679;28;20050;-42
2022/06/07 06:42:05;;;;;;;10.38;6.88;;;11.60;99.90;;;;;;5009955;28;20513;-43
2022/06/07 06:44:31;;;;;;;9.50;6.35;;;11.60;99.90;;;;;;5009152;28;20438;-43
2022/06/07 06:46:57;;;;;;;12.50;7.47;;;11.60;99.90;;;;;;5008431;28;20049;-41
2022/06/07 06:49:24;;;;;;;11.57;7.45;;;11.90;99.90;;;;;;5009430;28;20116;-41
2022/06/07 06:51:50;;;;;;;16.52;9.07;;;11.90;99.90;;;;;;5009691;28;20092;-41
2022/06/07 06:54:17;;;;;;;14.82;7.90;;;11.90;99.90;;;;;;5009122;28;20484;-44
2022/06/07 06:56:44;;;;;;;12.63;8.20;;;11.90;99.90;;;;;;5009862;28;20049;-44
2022/06/07 06:59:10;;;;;;;16.70;7.70;;;11.90;99.90;;;;;;5009634;28;20088;-42
2022/06/07 07:01:38;;;;;;;16.65;8.85;;;11.90;99.90;;;;;;5009409;28;20072;-40
2022/06/07 07:04:06;;;;;;;14.55;8.48;;;11.40;99.90;;;;;;5009301;28;20046;-42
2022/06/07 07:06:32;;;;;;;12.85;7.95;;;12.20;99.90;;;;;;5009381;28;20048;-42
2022/06/07 07:08:59;;;;;;;18.10;9.88;;;11.80;99.90;;;;;;5009056;28;20034;-43
2022/06/07 07:11:31;;;;;;;21.02;10.77;;;12.30;99.90;;;;;;5009629;28;20092;-43
2022/06/07 07:13:58;;;;;;;18.98;9.10;;;12.10;99.90;;;;;;5008373;28;20064;-42
2022/06/07 07:16:29;;;;;;;17.50;9.05;;;12.00;99.90;;;;;;4972190;28;1095856;-41
2022/06/07 07:18:55;;;;;;;15.02;8.57;;;12.00;99.90;;;;;;5009994;28;20103;-41
2022/06/07 07:21:23;;;;;;;15.52;9.68;;;11.60;99.90;;;;;;5009969;28;20137;-40
2022/06/07 07:23:50;;;;;;;18.48;9.63;;;11.60;99.90;;;;;;5008664;28;20489;-41
2022/06/07 07:26:22;;;;;;;15.60;10.13;;;11.70;99.90;;;;;;5010100;28;20460;-42
2022/06/07 07:28:52;;;;;;;13.38;8.93;;;11.70;99.90;;;;;;5009835;28;20049;-42
2022/06/07 07:31:21;;;;;;;16.60;9.95;;;11.90;99.90;;;;;;5010214;28;20050;-44
2022/06/07 07:33:47;;;;;;;16.52;9.50;;;11.70;99.90;;;;;;5009538;28;20123;-43
2022/06/07 07:36:13;;;;;;;13.93;10.45;;;12.20;99.90;;;;;;5009898;28;20424;-41
2022/06/07 07:38:40;;;;;;;15.57;10.00;;;11.80;99.90;;;;;;5009359;28;20038;-44
2022/06/07 07:41:17;;;;;;;17.17;9.73;;;12.10;99.90;;;;;;5009774;28;20440;-42
2022/06/07 07:43:44;;;;;;;13.75;9.75;;;12.00;99.90;;;;;;5007755;28;20501;-43
2022/06/07 07:46:12;;;;;;;18.23;11.57;;;12.00;99.90;;;;;;5009372;28;20038;-43
2022/06/07 07:48:37;;;;;;;17.73;11.70;;;12.10;99.90;;;;;;5009715;28;20037;-43
2022/06/07 07:51:15;;;;;;;19.27;11.65;;;12.10;99.90;;;;;;5009622;28;20041;-42
2022/06/07 07:53:42;;;;;;;19.30;10.90;;;12.10;99.90;;;;;;5009387;28;20042;-45
2022/06/07 07:56:08;;;;;;;16.17;9.02;;;12.10;99.90;;;;;;5009556;28;20049;-44
2022/06/07 07:58:35;;;;;;;16.77;9.40;;;12.10;99.90;;;;;;5009356;28;20662;-42
2022/06/07 08:01:06;;;;;;;12.48;8.38;;;12.10;99.90;;;;;;5009008;28;20034;-42
2022/06/07 08:03:31;;;;;;;10.70;6.35;;;12.20;99.90;;;;;;5009422;28;20046;-42
2022/06/07 08:05:57;;;;;;;10.55;5.97;;;12.10;99.90;;;;;;5009066;28;20049;-41
2022/06/07 08:08:22;;;;;;;7.60;4.28;;;12.00;99.90;;;;;;5009136;28;20041;-41
2022/06/07 08:10:48;;;;;;;8.50;5.28;;;12.70;99.90;;;;;;5009288;28;20048;-43
2022/06/07 08:13:14;;;;;;;11.73;5.45;;;12.20;99.90;;;;;;5009299;28;20048;-42
2022/06/07 08:15:40;;;;;;;16.42;4.15;;;12.20;99.90;;;;;;5008865;28;20077;-42
2022/06/07 08:18:06;;;;;;;7.47;4.35;;;12.10;99.90;;;;;;5008968;28;20104;-43
2022/06/07 08:20:36;;;;;;;9.93;4.05;;;12.20;99.90;;;;;;5009124;28;20619;-42
2022/06/07 08:23:05;;;;;;;11.43;4.25;;;13.30;99.90;;;;;;5008882;28;20048;-41
2022/06/07 08:25:31;;;;;;;8.80;4.20;;;12.20;99.90;;;;;;5009095;28;20485;-41
2022/06/07 08:27:57;;;;;;;7.32;3.53;;;12.20;99.90;;;;;;5008872;28;20041;-42
2022/06/07 08:30:23;;;;;;;7.45;4.13;;;12.20;99.90;;;;;;5009023;28;20590;-45
2022/06/07 08:32:48;;;;;;;6.03;3.58;;;12.20;99.90;;;;;;5009165;28;20048;-42
2022/06/07 08:38:02;;;;;;;8.23;4.88;;;12.20;99.90;;;;;;5008919;28;20107;-42
2022/06/07 08:40:33;;;;;;;10.27;4.45;;;12.30;99.90;;;;;;5008891;28;20065;-43
2022/06/07 08:43:05;;;;;;;9.88;4.30;;;12.30;99.90;;;;;;5008591;28;20042;-42
2022/06/07 08:45:39;;;;;;;6.30;3.55;;;12.40;99.90;;;;;;5008703;28;20124;-42
2022/06/07 08:48:14;;;;;;;13.50;4.55;;;12.40;99.90;;;;;;5008582;28;20129;-42
2022/06/07 08:51:11;;;;;;;15.90;4.55;;;12.50;99.90;;;;;;5008478;28;20509;-43
2022/06/07 08:53:44;;;;;;;8.50;4.45;;;12.60;99.90;;;;;;5008765;28;20050;-42
2022/06/07 08:56:17;;;;;;;5.30;4.70;;;13.30;99.90;;;;;;5008179;28;20046;-42
2022/06/07 08:58:49;;;;;;;7.97;4.18;;;13.30;99.90;;;;;;5008741;28;20045;-41
2022/06/07 09:01:21;;;;;;;;;;;13.50;99.90;;;;;;5008909;28;20049;-41
2022/06/07 09:04:12;;;;;;;7.25;5.38;;;12.90;99.90;;;;;;5008558;28;19928;-42
2022/06/07 09:06:43;;;;;;;8.63;5.10;;;13.10;99.90;;;;;;5008560;28;20046;-41
2022/06/07 09:09:10;;;;;;;10.70;5.53;;;13.40;99.90;;;;;;5008772;28;20092;-42
2022/06/07 09:14:49;;;;;;;;;;;13.40;99.90;;;;;;5009270;28;20082;-42
2022/06/07 09:17:34;;;;;;;10.20;5.32;;;13.30;99.90;;;;;;5008261;28;19921;-42
2022/06/07 09:20:02;;;;;;;10.32;6.07;;;13.30;99.90;;;;;;5008994;28;20078;-42
2022/06/07 09:22:46;;;;;;;13.27;7.50;;;13.20;99.90;;;;;;5023614;28;20440;-44
2022/06/07 09:25:26;;;;;;;10.48;7.20;;;13.20;99.90;;;;;;5008255;28;20092;-43
2022/06/07 09:27:52;;;;;;;11.77;5.57;;;13.20;99.90;;;;;;5008748;28;20049;-42
2022/06/07 09:30:33;;;;;;;11.60;5.93;;;13.20;99.90;;;;;;5008436;28;20081;-43
2022/06/07 09:33:21;;;;;;;9.40;5.88;;;13.10;99.90;;;;;;5008131;28;20052;-42
2022/06/07 09:35:48;;;;;;;14.55;6.43;;;13.00;99.90;;;;;;5008527;28;20461;-41
2022/06/07 09:38:28;;;;;;;12.25;6.60;;;12.90;99.90;;;;;;5008332;28;20033;-41
2022/06/07 09:41:01;;;;;;;11.02;7.22;;;12.90;99.90;;;;;;5008397;28;20042;-41
2022/06/07 09:43:38;;;;;;;9.63;4.45;;;13.30;99.90;;;;;;5008723;28;20053;-43
2022/06/07 09:46:09;;;;;;;6.35;4.10;;;13.00;99.90;;;;;;5008237;28;20544;-42
2022/06/07 09:48:41;;;;;;;5.32;3.35;;;12.90;99.90;;;;;;5012049;28;20386;-41
2022/06/07 09:51:06;;;;;;;5.78;3.47;;;12.90;99.90;;;;;;5011819;28;20042;-41
2022/06/07 09:53:39;;;;;;;8.05;4.05;;;12.90;99.90;;;;;;5012055;28;20092;-42
2022/06/07 09:56:17;;;;;;;5.93;3.33;;;12.90;99.90;;;;;;5011265;28;20037;-44
2022/06/07 09:59:16;;;;;;;7.40;2.70;;;12.90;99.90;;;;;;5011510;28;20049;-42
2022/06/07 10:01:51;;;;;;;3.53;1.98;;;13.00;99.90;;;;;;5011381;28;20049;-42
2022/06/07 10:04:17;;;;;;;1.92;0.88;;;13.10;99.90;;;;;;5011676;28;20041;-41
2022/06/07 10:06:56;;;;;;;1.98;0.77;;;13.10;99.90;;;;;;5011897;28;20048;-42
2022/06/07 10:09:59;;;;;;;2.42;1.08;;;13.10;99.90;;;;;;5012033;28;20046;-42
2022/06/07 10:12:50;;;;;;;4.60;1.10;;;13.10;99.90;;;;;;5010719;28;20046;-42
2022/06/07 10:15:25;;;;;;;2.83;0.80;;;13.30;99.90;;;;;;5011083;28;20053;-42
2022/06/07 10:18:12;;;;;;;2.67;0.50;;;13.40;99.90;;;;;;5011456;28;20440;-42
2022/06/07 10:20:59;;;;;;;2.60;0.82;;;13.50;99.90;;;;;;5011530;28;20054;-41
2022/06/07 10:23:27;;;;;;;4.13;0.60;;;13.70;99.90;;;;;;5011108;28;20084;-43
2022/06/07 10:26:22;;;;;;;3.90;0.95;;;13.80;99.90;;;;;;5011242;28;20042;-41
2022/06/07 10:29:09;;;;;;;3.60;0.88;;;14.00;99.90;;;;;;5009746;28;20056;-43
2022/06/07 10:31:57;;;;;;;4.10;1.35;;;14.10;99.90;;;;;;5011113;28;20504;-42
2022/06/07 10:34:33;;;;;;;2.45;0.70;;;14.10;99.90;;;;;;5009342;28;20133;-42
2022/06/07 10:37:23;;;;;;;2.60;0.35;;;14.20;99.90;;;;;;5011222;28;20073;-42
2022/06/07 10:40:06;;;;;;;1.55;0.30;;;14.10;99.90;;;;;;5011524;28;20038;-42
2022/06/07 10:42:47;;;;;;;;;;;14.20;99.90;;;;;;5011374;28;20517;-42
2022/06/07 10:45:36;;;;;;;1.73;0.40;;;14.20;99.90;;;;;;5010374;28;19926;-41
2022/06/07 10:48:32;;;;;;;3.08;0.40;;;14.30;99.90;;;;;;5010338;28;20068;-41
2022/06/07 10:54:29;;;;;;;1.63;0.50;;;14.40;99.90;;;;;;5010175;28;20157;-41
2022/06/07 10:57:12;;;;;;;1.70;0.65;;;14.60;99.90;;;;;;5010733;28;20054;-44
2022/06/07 10:59:41;;;;;;;4.57;0.95;;;14.60;99.90;;;;;;5009440;28;20122;-42
2022/06/07 11:02:22;;;;;;;1.85;0.50;;;14.60;99.90;;;;;;5009735;28;20050;-43
2022/06/07 11:10:45;;;;;;;3.60;0.40;;;14.50;99.90;;;;;;5010715;28;20080;-43
2022/06/07 11:13:20;;;;;;;2.08;0.60;;;14.40;99.90;;;;;;5009932;28;20046;-41
2022/06/07 11:16:15;;;;;;;2.58;0.40;;;14.40;99.90;;;;;;5010016;28;20694;-41
2022/06/07 11:18:42;;;;;;;2.00;0.20;;;14.40;99.90;;;;;;5010411;28;20108;-43
2022/06/07 11:21:10;;;;;;;0.95;0.20;;;14.30;99.90;;;;;;5010095;28;20038;-42
2022/06/07 11:23:45;;;;;;;2.03;0.57;;;14.40;99.90;;;;;;5010156;28;20124;-42
2022/06/07 11:26:14;;;;;;;1.73;0.20;;;14.70;99.90;;;;;;5010128;28;20046;-41
2022/06/07 11:28:40;;;;;;;0.80;0.20;;;15.10;99.90;;;;;;5009974;28;20048;-41
2022/06/07 11:31:43;;;;;;;1.23;0.20;;;15.70;99.90;;;;;;5009762;28;20038;-41
2022/06/07 11:34:27;;;;;;;1.48;0.55;;;15.50;99.90;;;;;;5008940;28;20780;-41
2022/06/07 11:37:15;;;;;;;2.22;0.40;;;15.50;99.90;;;;;;5009853;28;20056;-42
2022/06/07 11:39:41;;;;;;;1.25;0.50;;;15.60;99.90;;;;;;5009971;28;20046;-43
2022/06/07 11:42:12;;;;;;;1.60;0.20;;;15.60;99.90;;;;;;5009728;28;20400;-42
2022/06/07 11:44:41;;;;;;;1.90;0.22;;;15.60;99.90;;;;;;5009808;28;20054;-43
2022/06/07 11:47:07;;;;;;;1.58;0.20;;;15.60;99.90;;;;;;5009390;28;20051;-41
2022/06/07 11:49:57;;;;;;;2.17;0.30;;;15.70;99.90;;;;;;5008413;28;20041;-42
2022/06/07 11:52:34;;;;;;;1.38;0.20;;;16.10;99.90;;;;;;5009910;28;20034;-42
2022/06/07 11:55:18;;;;;;;1.38;0.10;;;16.80;99.90;;;;;;5009814;28;20046;-43
2022/06/07 11:57:54;;;;;;;2.15;0.30;;;17.20;99.90;;;;;;5009191;28;20124;-43
2022/06/07 12:00:19;;;;;;;2.10;0.20;;;17.50;99.90;;;;;;5008995;28;20056;-42
2022/06/07 12:02:57;;;;;;;4.55;0.40;;;17.70;99.90;;;;;;5009043;28;20096;-44
2022/06/07 12:05:40;;;;;;;1.75;0.30;;;17.80;99.90;;;;;;5009137;28;20087;-41
2022/06/07 12:08:22;;;;;;;2.00;0.40;;;17.90;99.90;;;;;;5009055;28;20100;-43
2022/06/07 12:11:26;;;;;;;1.30;0.28;;;17.90;99.90;;;;;;5008982;28;20042;-43
2022/06/07 12:13:58;;;;;;;4.63;0.30;;;17.60;99.90;;;;;;5008552;28;20171;-43
2022/06/07 12:16:42;;;;;;;6.03;0.75;;;17.30;99.90;;;;;;5008607;28;20054;-42
2022/06/07 12:19:28;;;;;;;3.33;0.88;;;17.20;99.90;;;;;;5009108;28;20132;-42
2022/06/07 12:22:11;;;;;;;1.95;0.43;;;17.10;99.90;;;;;;5008928;28;20116;-42
2022/06/07 12:24:59;;;;;;;2.72;0.47;;;17.00;99.90;;;;;;5009115;28;20088;-43
2022/06/07 12:27:30;;;;;;;5.03;0.52;;;16.70;99.90;;;;;;5008946;28;20497;-42
2022/06/07 12:30:01;;;;;;;5.22;0.45;;;16.50;99.90;;;;;;5009373;28;20553;-41
2022/06/07 12:32:36;;;;;;;4.18;0.60;;;16.30;99.90;;;;;;5008748;28;20486;-42
2022/06/07 12:35:08;;;;;;;4.47;0.75;;;16.10;99.90;;;;;;5009075;28;20049;-42
2022/06/07 12:37:35;;;;;;;3.15;0.73;;;16.00;99.90;;;;;;5008496;28;20128;-42
2022/06/07 12:40:00;;;;;;;3.10;0.40;;;15.90;99.90;;;;;;5009011;28;20131;-41
2022/06/07 12:42:32;;;;;;;3.92;1.08;;;15.80;99.90;;;;;;5008484;28;20037;-42
2022/06/07 12:45:00;;;;;;;4.57;0.50;;;16.00;99.90;;;;;;5023614;28;20501;-41
2022/06/07 12:47:31;;;;;;;4.38;0.85;;;15.80;99.90;;;;;;5008420;28;20514;-41
2022/06/07 12:49:58;;;;;;;2.95;0.52;;;15.90;99.90;;;;;;5008639;28;20050;-42
2022/06/07 12:52:33;;;;;;;4.05;0.52;;;16.10;99.90;;;;;;5009073;28;20037;-43
2022/06/07 12:55:10;;;;;;;4.28;0.65;;;16.30;99.90;;;;;;5008705;28;20042;-41
2022/06/07 12:57:52;;;;;;;5.53;0.40;;;16.40;99.90;;;;;;5008596;28;20497;-43
2022/06/07 13:00:23;;;;;;;2.60;0.52;;;16.30;99.90;;;;;;5008877;28;20046;-41
2022/06/07 13:02:53;;;;;;;3.65;0.50;;;16.20;99.90;;;;;;5007344;28;20367;-42
2022/06/07 13:05:23;;;;;;;2.92;0.68;;;16.10;99.90;;;;;;5008546;28;20526;-44
2022/06/07 13:07:51;;;;;;;3.17;1.05;;;16.00;99.90;;;;;;5008851;28;20144;-41
2022/06/07 13:10:28;;;;;;;6.28;0.82;;;15.90;99.90;;;;;;5008165;28;20049;-42
2022/06/07 13:12:57;;;;;;;2.47;0.45;;;15.90;99.90;;;;;;5009066;28;20042;-43
2022/06/07 13:15:26;;;;;;;4.40;0.52;;;16.00;99.90;;;;;;5007964;28;20073;-43
2022/06/07 13:17:59;;;;;;;6.07;0.73;;;16.00;99.90;;;;;;5008604;28;20088;-42